createdAt,value
2022-11-14T00:04:25.445Z,15.93
2022-11-14T00:09:21.611Z,16.23
2022-11-14T00:14:16.198Z,16.87
2022-11-14T00:19:09.418Z,16.47
2022-11-14T00:24:02.957Z,16.80
2022-11-14T00:28:56.754Z,16.60
2022-11-14T00:33:51.439Z,17.03
2022-11-14T00:38:44.777Z,16.67
2022-11-14T00:43:38.007Z,16.83
2022-11-14T00:48:32.042Z,15.63
2022-11-14T00:53:26.905Z,17.00
2022-11-14T00:58:20.185Z,17.47
2022-11-14T01:03:13.430Z,18.17
2022-11-14T01:08:06.876Z,17.67
2022-11-14T01:13:01.701Z,18.00
2022-11-14T01:17:55.045Z,17.80
2022-11-14T01:22:48.290Z,18.60
2022-11-14T01:27:41.949Z,18.67
2022-11-14T01:32:36.564Z,17.47
2022-11-14T01:37:29.811Z,18.53
2022-11-14T01:42:27.166Z,18.63
2022-11-14T01:47:25.739Z,18.10
2022-11-14T01:52:25.754Z,17.90
2022-11-14T01:57:26.546Z,18.83
2022-11-14T02:02:22.912Z,17.47
2022-11-14T02:07:17.137Z,18.37
2022-11-14T02:12:17.786Z,17.57
2022-11-14T02:22:25.800Z,17.90
2022-11-14T02:27:19.143Z,17.27
2022-11-14T02:32:12.502Z,19.60
2022-11-14T02:37:06.189Z,20.20
2022-11-14T02:42:00.856Z,18.03
2022-11-14T02:46:54.351Z,20.87
2022-11-14T02:51:47.622Z,18.67
2022-11-14T02:56:40.887Z,19.30
2022-11-14T03:01:35.957Z,17.03
2022-11-14T03:06:29.645Z,18.50
2022-11-14T03:11:23.075Z,18.30
2022-11-14T03:16:16.536Z,19.17
2022-11-14T03:21:14.963Z,19.30
2022-11-14T03:26:11.368Z,18.50
2022-11-14T03:31:05.607Z,18.53
2022-11-14T03:35:59.023Z,18.50
2022-11-14T03:40:53.897Z,17.77
2022-11-14T03:45:48.043Z,18.60
2022-11-14T03:50:41.424Z,19.90
2022-11-14T03:55:34.856Z,19.97
2022-11-14T04:00:30.014Z,19.13
2022-11-14T04:05:23.496Z,18.10
2022-11-14T04:10:17.780Z,18.03
2022-11-14T04:15:11.984Z,18.50
2022-11-14T04:20:08.189Z,18.00
2022-11-14T04:25:01.504Z,19.37
2022-11-14T04:29:54.786Z,18.67
2022-11-14T04:34:48.187Z,16.53
2022-11-14T04:39:42.876Z,18.23
2022-11-14T04:44:36.277Z,17.90
2022-11-14T04:49:29.554Z,17.93
2022-11-14T04:54:22.946Z,16.57
2022-11-14T04:59:20.907Z,17.40
2022-11-14T05:04:14.702Z,17.27
2022-11-14T05:09:08.246Z,17.07
2022-11-14T05:14:01.492Z,16.67
2022-11-14T05:18:56.517Z,17.40
2022-11-14T05:23:49.751Z,17.87
2022-11-14T05:28:43.100Z,17.53
2022-11-14T05:33:37.348Z,16.43
2022-11-14T05:38:32.476Z,19.50
2022-11-14T05:43:26.606Z,19.40
2022-11-14T05:48:19.956Z,16.87
2022-11-14T05:53:13.262Z,15.97
2022-11-14T05:58:07.894Z,15.70
2022-11-14T06:03:01.142Z,17.67
2022-11-14T06:07:57.863Z,18.80
2022-11-14T06:12:51.186Z,24.57
2022-11-14T06:17:46.361Z,17.90
2022-11-14T06:22:39.647Z,17.57
2022-11-14T06:27:33.698Z,16.70
2022-11-14T06:32:26.942Z,16.83
2022-11-14T06:37:21.524Z,17.03
2022-11-14T06:42:16.938Z,17.27
2022-11-14T06:47:10.600Z,17.07
2022-11-14T06:52:03.910Z,17.30
2022-11-14T06:56:58.625Z,18.37
2022-11-14T07:01:51.986Z,17.33
2022-11-14T07:06:45.368Z,16.73
2022-11-14T07:11:41.094Z,21.33
2022-11-14T07:16:37.243Z,27.60
2022-11-14T07:21:32.476Z,19.63
2022-11-14T07:26:26.248Z,17.87
2022-11-14T07:31:21.799Z,18.20
2022-11-14T07:36:17.966Z,29.87
2022-11-14T07:41:14.144Z,17.70
2022-11-14T07:46:11.568Z,18.10
2022-11-14T07:51:07.673Z,19.00
2022-11-14T07:56:09.671Z,19.70
2022-11-14T08:01:03.956Z,16.37
2022-11-14T08:06:02.652Z,16.60
2022-11-14T08:10:58.909Z,20.90
2022-11-14T08:15:54.370Z,20.10
2022-11-14T08:20:48.761Z,20.00
2022-11-14T08:25:43.003Z,20.30
2022-11-14T08:30:37.197Z,19.23
2022-11-14T08:35:32.155Z,17.97
2022-11-14T08:40:25.612Z,16.87
2022-11-14T08:45:19.254Z,18.40
2022-11-14T08:50:12.543Z,17.37
2022-11-14T08:55:08.334Z,17.73
2022-11-14T09:00:01.639Z,18.70
2022-11-14T09:04:55.065Z,21.97
2022-11-14T09:09:48.562Z,20.27
2022-11-14T09:14:45.917Z,24.57
2022-11-14T09:19:47.102Z,26.10
2022-11-14T09:24:49.222Z,19.73
2022-11-14T09:30:09.022Z,20.77
2022-11-14T09:35:03.885Z,20.30
2022-11-14T09:40:10.800Z,20.87
2022-11-14T09:45:16.655Z,20.47
2022-11-14T09:50:26.583Z,17.33
2022-11-14T09:55:26.414Z,18.73
2022-11-14T10:00:42.687Z,16.00
2022-11-14T10:06:14.157Z,18.23
2022-11-14T10:11:27.204Z,18.23
2022-11-14T10:16:36.773Z,19.83
2022-11-14T10:22:01.874Z,20.23
2022-11-14T10:27:12.420Z,25.80
2022-11-14T10:32:29.809Z,13.83
2022-11-14T10:37:40.008Z,12.47
2022-11-14T10:42:42.910Z,12.27
2022-11-14T10:48:07.737Z,12.00
2022-11-14T10:53:18.109Z,10.90
2022-11-14T10:58:22.708Z,10.90
2022-11-14T11:03:48.515Z,10.03
2022-11-14T11:09:16.629Z,11.20
2022-11-14T11:14:23.946Z,9.70
2022-11-14T11:25:16.819Z,9.67
2022-11-14T11:37:34.357Z,9.40
2022-11-14T11:43:23.783Z,9.40
2022-11-14T11:48:07.091Z,8.43
2022-11-14T11:53:19.294Z,9.50
2022-11-14T11:58:29.971Z,9.90
2022-11-14T12:09:12.296Z,9.77
2022-11-14T12:15:09.337Z,9.27
2022-11-14T12:20:50.849Z,10.60
2022-11-14T12:26:07.632Z,9.60
2022-11-14T12:31:15.849Z,11.57
2022-11-14T12:36:15.512Z,11.77
2022-11-14T12:41:30.124Z,12.13
2022-11-14T12:46:26.055Z,13.30
2022-11-14T12:51:53.600Z,14.13
2022-11-14T12:57:35.014Z,12.87
2022-11-14T13:03:31.839Z,13.40
2022-11-14T13:09:40.707Z,12.30
2022-11-14T13:21:04.164Z,11.40
2022-11-14T13:27:05.826Z,11.03
2022-11-14T13:32:14.066Z,12.20
2022-11-14T13:37:43.071Z,11.50
2022-11-14T13:43:03.360Z,15.90
2022-11-14T13:48:47.760Z,16.07
2022-11-14T13:53:57.688Z,17.07
2022-11-14T13:59:44.028Z,16.07
2022-11-14T14:05:10.237Z,15.07
2022-11-14T14:10:28.280Z,16.60
2022-11-14T14:15:42.903Z,14.97
2022-11-14T14:20:50.104Z,16.23
2022-11-14T14:26:04.929Z,15.97
2022-11-14T14:31:14.727Z,15.30
2022-11-14T14:36:36.031Z,15.87
2022-11-14T14:41:41.726Z,15.07
2022-11-14T14:46:37.285Z,13.50
2022-11-14T14:51:38.234Z,14.47
2022-11-14T14:56:33.071Z,30.80
2022-11-14T15:01:40.389Z,16.70
2022-11-14T15:06:42.240Z,14.83
2022-11-14T15:11:45.451Z,15.37
2022-11-14T15:16:41.063Z,16.00
2022-11-14T15:21:42.562Z,15.63
2022-11-14T15:26:43.157Z,16.03
2022-11-14T15:31:50.016Z,18.37
2022-11-14T15:37:22.173Z,17.63
2022-11-14T15:42:29.739Z,17.33
2022-11-14T15:47:30.766Z,16.23
2022-11-14T15:52:33.546Z,17.20
2022-11-14T15:57:31.425Z,15.23
2022-11-14T16:02:33.106Z,14.60
2022-11-14T16:07:28.050Z,13.97
2022-11-14T16:12:24.879Z,12.93
2022-11-14T16:17:19.882Z,14.37
2022-11-14T16:22:18.827Z,16.60
2022-11-14T16:27:12.439Z,18.80
2022-11-14T16:32:08.102Z,18.17
2022-11-14T16:37:16.225Z,17.87
2022-11-14T16:42:15.038Z,16.83
2022-11-14T16:47:12.144Z,25.23
2022-11-14T16:52:08.925Z,25.57
2022-11-14T16:57:04.555Z,19.17
2022-11-14T17:02:02.949Z,16.40
2022-11-14T17:07:04.216Z,16.73
2022-11-14T17:12:04.245Z,22.00
2022-11-14T17:17:02.018Z,28.27
2022-11-14T17:21:57.795Z,22.80
2022-11-14T17:26:53.155Z,18.53
2022-11-14T17:31:48.000Z,16.17
2022-11-14T17:36:55.092Z,15.30
2022-11-14T17:41:48.700Z,13.67
2022-11-14T17:46:42.341Z,15.33
2022-11-14T17:51:44.133Z,11.83
2022-11-14T17:56:46.503Z,12.30
2022-11-14T18:01:43.931Z,12.67
2022-11-14T18:06:47.349Z,11.13
2022-11-14T18:11:50.269Z,10.83
2022-11-14T18:22:14.294Z,11.33
2022-11-14T18:27:19.747Z,11.97
2022-11-14T18:32:18.369Z,14.90
2022-11-14T18:37:19.267Z,14.13
2022-11-14T18:42:15.847Z,14.43
2022-11-14T18:47:25.427Z,18.60
2022-11-14T18:52:21.148Z,30.10
2022-11-14T18:57:26.407Z,37.60
2022-11-14T19:02:27.320Z,25.70
2022-11-14T19:07:34.551Z,17.03
2022-11-14T19:12:28.015Z,17.73
2022-11-14T19:18:46.352Z,14.40
2022-11-14T19:24:25.178Z,12.33
2022-11-14T19:29:54.629Z,9.90
2022-11-14T19:35:45.337Z,9.57
2022-11-14T19:42:15.735Z,10.53
2022-11-14T20:06:48.283Z,18.87
2022-11-14T20:50:22.504Z,14.40
2022-11-14T20:56:00.750Z,25.97
2022-11-14T21:00:57.830Z,20.43
2022-11-14T21:05:53.623Z,28.93
2022-11-14T21:11:07.411Z,20.70
2022-11-14T21:16:04.753Z,16.40
2022-11-14T21:21:04.212Z,18.53
2022-11-14T21:26:08.162Z,14.97
2022-11-14T21:31:18.203Z,17.17
2022-11-14T21:36:44.966Z,15.63
2022-11-14T21:41:30.813Z,14.83
2022-11-14T21:46:32.413Z,16.57
2022-11-14T21:51:29.554Z,13.10
2022-11-14T21:56:25.800Z,18.60
2022-11-14T22:01:44.670Z,14.60
2022-11-14T22:06:40.376Z,19.27
2022-11-14T22:11:33.912Z,14.03
2022-11-14T22:16:28.094Z,13.17
2022-11-14T22:21:24.390Z,18.13
2022-11-14T22:26:28.905Z,20.10
2022-11-14T22:31:24.488Z,15.30
2022-11-14T22:36:28.598Z,19.03
2022-11-14T22:41:32.283Z,19.33
2022-11-14T22:46:33.006Z,21.20
2022-11-14T22:51:28.749Z,14.17
2022-11-14T22:56:32.430Z,16.53
2022-11-14T23:01:28.892Z,14.70
2022-11-14T23:06:30.141Z,17.80
2022-11-14T23:11:33.052Z,16.77
2022-11-14T23:16:36.218Z,11.70
2022-11-14T23:21:40.661Z,17.77
2022-11-14T23:26:36.023Z,15.00
2022-11-14T23:31:40.422Z,17.10
2022-11-14T23:36:33.691Z,12.50
2022-11-14T23:41:27.061Z,14.90
2022-11-14T23:46:21.712Z,17.17
2022-11-14T23:51:17.906Z,18.77
2022-11-14T23:56:31.757Z,13.17
